createdAt,value
2018-03-14T01:42:28.913Z,1008.73
2018-03-14T01:42:29.487Z,1008.69
2018-03-14T01:42:30.085Z,1008.71
2018-03-14T01:42:30.686Z,1008.70
2018-03-14T01:42:31.286Z,1008.71
2018-03-14T01:42:31.884Z,1008.70
2018-03-14T01:42:32.483Z,1008.74
2018-03-14T01:42:33.084Z,1008.70
2018-03-14T01:43:26.569Z,1008.72
2018-03-14T01:43:27.139Z,1008.71
2018-03-14T01:43:27.738Z,1008.72
2018-03-14T01:43:28.340Z,1008.69
2018-03-14T01:43:28.938Z,1008.74
2018-03-14T01:43:29.537Z,1008.74
2018-03-14T01:43:30.139Z,1008.72
2018-03-14T01:43:30.739Z,1008.77
2018-03-14T01:44:24.221Z,1008.71
2018-03-14T01:44:24.792Z,1008.68
2018-03-14T01:44:25.391Z,1008.69
2018-03-14T01:44:25.990Z,1008.75
2018-03-14T01:44:26.590Z,1008.75
2018-03-14T01:44:27.191Z,1008.73
2018-03-14T01:44:27.790Z,1008.72
2018-03-14T01:44:28.390Z,1008.72
2018-03-14T01:45:22.895Z,1008.73
2018-03-14T01:45:23.472Z,1008.73
2018-03-14T01:45:24.066Z,1008.71
2018-03-14T01:45:24.666Z,1008.71
2018-03-14T01:45:25.267Z,1008.72
2018-03-14T01:45:25.865Z,1008.74
2018-03-14T01:45:26.466Z,1008.71
2018-03-14T01:45:27.066Z,1008.76
2018-03-14T01:46:21.571Z,1008.74
2018-03-14T01:46:22.144Z,1008.75
2018-03-14T01:46:22.743Z,1008.72
2018-03-14T01:46:23.342Z,1008.75
2018-03-14T01:46:23.944Z,1008.75
2018-03-14T01:46:24.542Z,1008.73
2018-03-14T01:46:25.144Z,1008.75
2018-03-14T01:46:25.741Z,1008.73
2018-03-14T01:47:19.223Z,1008.72
2018-03-14T01:47:19.811Z,1008.72
2018-03-14T01:47:20.395Z,1008.73
2018-03-14T01:47:20.996Z,1008.70
2018-03-14T01:47:21.594Z,1008.75
2018-03-14T01:47:22.195Z,1008.74
2018-03-14T01:47:22.794Z,1008.70
2018-03-14T01:47:23.395Z,1008.74
2018-03-14T01:48:17.899Z,1008.75
2018-03-14T01:48:18.470Z,1008.71
2018-03-14T01:48:19.070Z,1008.72
2018-03-14T01:48:19.670Z,1008.70
2018-03-14T01:48:20.269Z,1008.71
2018-03-14T01:48:20.870Z,1008.70
2018-03-14T01:48:21.470Z,1008.73
2018-03-14T01:48:22.069Z,1008.71
2018-03-14T01:49:16.575Z,1008.76
2018-03-14T01:49:17.147Z,1008.74
2018-03-14T01:49:17.747Z,1008.74
2018-03-14T01:49:18.347Z,1008.77
2018-03-14T01:49:18.946Z,1008.78
2018-03-14T01:49:19.546Z,1008.74
2018-03-14T01:49:20.154Z,1008.79
2018-03-14T01:49:20.745Z,1008.79
2018-03-14T01:50:14.226Z,1008.71
2018-03-14T01:50:14.800Z,1008.73
2018-03-14T01:50:15.400Z,1008.72
2018-03-14T01:50:16.004Z,1008.70
2018-03-14T01:50:16.598Z,1008.74
2018-03-14T01:50:17.198Z,1008.73
2018-03-14T01:50:17.800Z,1008.74
2018-03-14T01:50:18.398Z,1008.75
2018-03-14T01:51:11.878Z,1008.77
2018-03-14T01:51:12.453Z,1008.79
2018-03-14T01:51:13.052Z,1008.75
2018-03-14T01:51:13.656Z,1008.79
2018-03-14T01:51:14.256Z,1008.80
2018-03-14T01:51:14.851Z,1008.77
2018-03-14T01:51:15.452Z,1008.77
2018-03-14T01:51:16.051Z,1008.80
2018-03-14T01:52:10.554Z,1008.82
2018-03-14T01:52:11.130Z,1008.80
2018-03-14T01:52:11.725Z,1008.78
2018-03-14T01:52:12.334Z,1008.75
2018-03-14T01:52:12.925Z,1008.77
2018-03-14T01:52:13.525Z,1008.78
2018-03-14T01:52:14.127Z,1008.77
2018-03-14T01:52:14.725Z,1008.78
2018-03-14T01:53:09.230Z,1008.81
2018-03-14T01:53:09.803Z,1008.80
2018-03-14T01:53:10.406Z,1008.74
2018-03-14T01:53:11.007Z,1008.77
2018-03-14T01:53:11.603Z,1008.77
2018-03-14T01:53:12.202Z,1008.75
2018-03-14T01:53:12.802Z,1008.79
2018-03-14T01:53:13.402Z,1008.78
2018-03-14T01:54:06.883Z,1008.79
2018-03-14T01:54:07.456Z,1008.80
2018-03-14T01:54:08.056Z,1008.79
2018-03-14T01:54:08.656Z,1008.80
2018-03-14T01:54:09.261Z,1008.79
2018-03-14T01:54:09.854Z,1008.80
2018-03-14T01:54:10.454Z,1008.80
2018-03-14T01:54:11.055Z,1008.79
2018-03-14T01:55:04.543Z,1008.80
2018-03-14T01:55:05.106Z,1008.80
2018-03-14T01:55:05.706Z,1008.82
2018-03-14T01:55:06.309Z,1008.79
2018-03-14T01:55:06.908Z,1008.81
2018-03-14T01:55:07.505Z,1008.81
2018-03-14T01:55:08.106Z,1008.78
2018-03-14T01:55:08.706Z,1008.76
2018-03-14T01:56:03.213Z,1008.84
2018-03-14T01:56:03.783Z,1008.84
2018-03-14T01:56:04.383Z,1008.82
2018-03-14T01:56:04.983Z,1008.81
2018-03-14T01:56:05.581Z,1008.84
2018-03-14T01:56:06.181Z,1008.84
2018-03-14T01:56:06.781Z,1008.86
2018-03-14T01:56:07.393Z,1008.84
2018-03-14T01:57:01.884Z,1008.88
2018-03-14T01:57:02.460Z,1008.83
2018-03-14T01:57:03.056Z,1008.85
2018-03-14T01:57:03.659Z,1008.86
2018-03-14T01:57:04.258Z,1008.80
2018-03-14T01:57:04.857Z,1008.82
2018-03-14T01:57:05.456Z,1008.84
2018-03-14T01:57:06.060Z,1008.83
2018-03-14T01:57:59.568Z,1008.85
2018-03-14T01:58:00.110Z,1008.83
2018-03-14T01:58:00.709Z,1008.86
2018-03-14T01:58:01.311Z,1008.83
2018-03-14T01:58:01.907Z,1008.81
2018-03-14T01:58:02.508Z,1008.82
2018-03-14T01:58:03.108Z,1008.84
2018-03-14T01:58:03.709Z,1008.81
2018-03-14T01:58:57.191Z,1008.87
2018-03-14T01:58:57.762Z,1008.86
2018-03-14T01:58:58.361Z,1008.89
2018-03-14T01:58:58.963Z,1008.85
2018-03-14T01:58:59.561Z,1008.89
2018-03-14T01:59:00.162Z,1008.87
2018-03-14T01:59:00.761Z,1008.86
2018-03-14T01:59:01.361Z,1008.88
2018-03-14T01:59:55.865Z,1008.87
2018-03-14T01:59:56.438Z,1008.88
2018-03-14T01:59:57.039Z,1008.89
2018-03-14T01:59:57.648Z,1008.89
2018-03-14T01:59:58.237Z,1008.87
2018-03-14T01:59:58.835Z,1008.92
2018-03-14T01:59:59.436Z,1008.88
2018-03-14T02:00:00.036Z,1008.90
2018-03-14T02:00:53.516Z,1008.89
2018-03-14T02:00:54.090Z,1008.86
2018-03-14T02:00:54.688Z,1008.86
2018-03-14T02:00:55.289Z,1008.84
2018-03-14T02:00:55.890Z,1008.86
2018-03-14T02:00:56.488Z,1008.84
2018-03-14T02:00:57.089Z,1008.88
2018-03-14T02:00:57.688Z,1008.86
2018-03-14T02:01:51.169Z,1008.89
2018-03-14T02:01:51.742Z,1008.89
2018-03-14T02:01:52.341Z,1008.89
2018-03-14T02:01:52.941Z,1008.90
2018-03-14T02:01:53.542Z,1008.88
2018-03-14T02:01:54.141Z,1008.90
2018-03-14T02:01:54.740Z,1008.86
2018-03-14T02:01:55.341Z,1008.91
2018-03-14T02:02:49.844Z,1008.93
2018-03-14T02:02:50.416Z,1008.93
2018-03-14T02:02:51.016Z,1008.93
2018-03-14T02:02:51.618Z,1008.91
2018-03-14T02:02:52.215Z,1008.90
2018-03-14T02:02:52.815Z,1008.86
2018-03-14T02:02:53.415Z,1008.91
2018-03-14T02:02:54.015Z,1008.89
2018-03-14T02:03:48.520Z,1008.90
2018-03-14T02:03:49.092Z,1008.91
2018-03-14T02:03:49.690Z,1008.91
2018-03-14T02:03:50.293Z,1008.90
2018-03-14T02:03:50.891Z,1008.91
2018-03-14T02:03:51.492Z,1008.93
2018-03-14T02:03:52.090Z,1008.91
2018-03-14T02:03:52.691Z,1008.92
2018-03-14T02:04:46.172Z,1008.97
2018-03-14T02:04:46.745Z,1008.95
2018-03-14T02:04:47.343Z,1008.96
2018-03-14T02:04:47.944Z,1008.96
2018-03-14T02:04:48.544Z,1008.94
2018-03-14T02:04:49.143Z,1008.97
2018-03-14T02:04:49.743Z,1008.95
2018-03-14T02:04:50.344Z,1008.95
2018-03-14T02:05:44.847Z,1008.94
2018-03-14T02:05:45.425Z,1008.97
2018-03-14T02:05:46.020Z,1008.97
2018-03-14T02:05:46.619Z,1008.95
2018-03-14T02:05:47.218Z,1008.98
2018-03-14T02:05:47.818Z,1008.97
2018-03-14T02:05:48.418Z,1008.94
2018-03-14T02:05:49.019Z,1008.95
2018-03-14T02:06:43.522Z,1008.96
2018-03-14T02:06:44.095Z,1008.96
2018-03-14T02:06:44.695Z,1008.94
2018-03-14T02:06:45.298Z,1008.97
2018-03-14T02:06:45.895Z,1008.97
2018-03-14T02:06:46.494Z,1008.96
2018-03-14T02:06:47.094Z,1008.94
2018-03-14T02:06:47.694Z,1008.96
2018-03-14T02:07:42.199Z,1008.95
2018-03-14T02:07:42.770Z,1008.97
2018-03-14T02:07:43.369Z,1008.96
2018-03-14T02:07:43.970Z,1008.98
2018-03-14T02:07:44.570Z,1008.97
2018-03-14T02:07:45.170Z,1008.98
2018-03-14T02:07:45.770Z,1008.95
2018-03-14T02:07:46.373Z,1008.99
2018-03-14T02:08:39.851Z,1008.98
2018-03-14T02:08:40.426Z,1008.99
2018-03-14T02:08:41.024Z,1008.98
2018-03-14T02:08:41.627Z,1009.02
2018-03-14T02:08:42.223Z,1008.99
2018-03-14T02:08:42.824Z,1009.00
2018-03-14T02:08:43.423Z,1009.03
2018-03-14T02:08:44.023Z,1009.00
2018-03-14T02:09:38.527Z,1008.99
2018-03-14T02:09:39.098Z,1008.99
2018-03-14T02:09:39.697Z,1008.99
2018-03-14T02:09:40.296Z,1008.98
2018-03-14T02:09:40.897Z,1008.93
2018-03-14T02:09:41.496Z,1008.96
2018-03-14T02:09:42.097Z,1009.00
2018-03-14T02:09:42.696Z,1008.97
2018-03-14T02:10:37.202Z,1009.00
2018-03-14T02:10:37.774Z,1008.99
2018-03-14T02:10:38.372Z,1008.96
2018-03-14T02:10:38.972Z,1009.01
2018-03-14T02:10:39.572Z,1008.98
2018-03-14T02:10:40.180Z,1008.99
2018-03-14T02:10:40.773Z,1008.99
2018-03-14T02:10:41.371Z,1009.02
2018-03-14T02:11:34.853Z,1009.03
2018-03-14T02:11:35.426Z,1009.00
2018-03-14T02:11:36.024Z,1008.99
2018-03-14T02:11:36.625Z,1009.00
2018-03-14T02:11:37.226Z,1009.01
2018-03-14T02:11:37.826Z,1008.99
2018-03-14T02:11:38.424Z,1008.96
2018-03-14T02:11:39.025Z,1008.99
2018-03-14T02:12:33.528Z,1009.05
2018-03-14T02:12:34.102Z,1009.05
2018-03-14T02:12:34.699Z,1009.07
2018-03-14T02:12:35.300Z,1009.08
2018-03-14T02:12:35.900Z,1009.04
2018-03-14T02:12:36.499Z,1009.00
2018-03-14T02:12:37.100Z,1009.07
2018-03-14T02:12:37.699Z,1009.08
2018-03-14T02:13:32.204Z,1009.05
2018-03-14T02:13:32.776Z,1009.06
2018-03-14T02:13:33.376Z,1009.04
2018-03-14T02:13:33.978Z,1009.07
2018-03-14T02:13:34.575Z,1009.08
2018-03-14T02:13:35.175Z,1009.08
2018-03-14T02:13:35.775Z,1009.08
2018-03-14T02:13:36.375Z,1009.10
2018-03-14T02:14:30.882Z,1009.04
2018-03-14T02:14:31.455Z,1009.00
2018-03-14T02:14:32.052Z,1009.07
2018-03-14T02:14:32.653Z,1009.06
2018-03-14T02:14:33.250Z,1009.01
2018-03-14T02:14:33.851Z,1009.03
2018-03-14T02:14:34.452Z,1009.08
2018-03-14T02:14:35.051Z,1009.05
2018-03-14T02:15:28.532Z,1009.09
2018-03-14T02:15:29.104Z,1009.06
2018-03-14T02:15:29.704Z,1009.06
2018-03-14T02:15:30.304Z,1009.02
2018-03-14T02:15:30.904Z,1008.99
2018-03-14T02:15:31.504Z,1009.07
2018-03-14T02:15:32.104Z,1009.08
2018-03-14T02:15:32.703Z,1009.10
2018-03-14T02:16:26.184Z,1009.03
2018-03-14T02:16:26.756Z,1009.09
2018-03-14T02:16:27.358Z,1009.06
2018-03-14T02:16:27.959Z,1009.09
2018-03-14T02:16:28.556Z,1009.03
2018-03-14T02:16:29.156Z,1009.07
2018-03-14T02:16:29.756Z,1009.01
2018-03-14T02:16:30.361Z,1009.05
2018-03-14T02:17:23.835Z,1009.05
2018-03-14T02:17:24.407Z,1009.02
2018-03-14T02:17:25.008Z,1009.06
2018-03-14T02:17:25.610Z,1009.03
2018-03-14T02:17:26.207Z,1009.08
2018-03-14T02:17:26.807Z,1009.05
2018-03-14T02:17:27.406Z,1009.06
2018-03-14T02:17:28.007Z,1009.09
2018-03-14T02:18:22.530Z,1009.07
2018-03-14T02:18:23.085Z,1009.05
2018-03-14T02:18:23.684Z,1009.04
2018-03-14T02:18:24.283Z,1009.06
2018-03-14T02:18:24.886Z,1009.04
2018-03-14T02:18:25.482Z,1009.06
2018-03-14T02:18:26.082Z,1009.05
2018-03-14T02:18:26.682Z,1009.05
2018-03-14T02:19:21.184Z,1009.06
2018-03-14T02:19:21.758Z,1009.04
2018-03-14T02:19:22.359Z,1009.07
2018-03-14T02:19:22.961Z,1009.06
2018-03-14T02:19:23.557Z,1009.01
2018-03-14T02:19:24.159Z,1009.04
2018-03-14T02:19:24.757Z,1009.02
2018-03-14T02:19:25.370Z,1009.03
2018-03-14T02:20:18.948Z,1009.06
2018-03-14T02:20:19.528Z,1009.08
2018-03-14T02:20:20.118Z,1009.04
2018-03-14T02:20:20.718Z,1009.03
2018-03-14T02:20:21.317Z,1009.06
2018-03-14T02:20:21.915Z,1009.09
2018-03-14T02:20:22.516Z,1009.06
2018-03-14T02:20:23.116Z,1009.06
2018-03-14T02:21:17.623Z,1009.08
2018-03-14T02:21:18.193Z,1009.06
2018-03-14T02:21:18.792Z,1009.09
2018-03-14T02:21:19.393Z,1009.04
2018-03-14T02:21:19.999Z,1009.07
2018-03-14T02:21:20.591Z,1009.05
2018-03-14T02:21:21.192Z,1009.01
2018-03-14T02:21:21.791Z,1009.07
2018-03-14T02:22:15.283Z,1009.15
2018-03-14T02:22:15.844Z,1009.12
2018-03-14T02:22:16.448Z,1009.12
2018-03-14T02:22:17.044Z,1009.12
2018-03-14T02:22:17.643Z,1009.12
2018-03-14T02:22:18.242Z,1009.05
2018-03-14T02:22:18.842Z,1009.06
2018-03-14T02:22:19.446Z,1009.07
2018-03-14T02:23:12.932Z,1009.03
2018-03-14T02:23:13.497Z,1009.06
2018-03-14T02:23:14.097Z,1009.07
2018-03-14T02:23:14.697Z,1009.10
2018-03-14T02:23:15.297Z,1009.07
2018-03-14T02:23:15.896Z,1009.07
2018-03-14T02:23:16.496Z,1009.07
2018-03-14T02:23:17.095Z,1009.07
2018-03-14T02:24:11.601Z,1009.04
2018-03-14T02:24:12.173Z,1009.02
2018-03-14T02:24:12.771Z,1009.03
2018-03-14T02:24:13.373Z,1009.10
2018-03-14T02:24:13.971Z,1009.04
2018-03-14T02:24:14.571Z,1009.02
2018-03-14T02:24:15.172Z,1009.07
2018-03-14T02:24:15.774Z,1009.04
2018-03-14T02:25:09.257Z,1009.01
2018-03-14T02:25:09.823Z,1009.05
2018-03-14T02:25:10.424Z,1009.04
2018-03-14T02:25:11.024Z,1009.01
2018-03-14T02:25:11.628Z,1009.06
2018-03-14T02:25:12.221Z,1009.08
2018-03-14T02:25:12.821Z,1009.05
2018-03-14T02:25:13.422Z,1009.04
2018-03-14T02:26:06.908Z,1009.05
2018-03-14T02:26:07.533Z,1009.04
2018-03-14T02:26:08.076Z,1009.05
2018-03-14T02:26:08.675Z,1009.07
2018-03-14T02:26:09.276Z,1009.07
2018-03-14T02:26:09.875Z,1009.06
2018-03-14T02:26:10.476Z,1009.08
2018-03-14T02:26:11.074Z,1009.06
2018-03-14T02:27:04.560Z,1009.12
2018-03-14T02:27:05.127Z,1009.08
2018-03-14T02:27:05.727Z,1009.08
2018-03-14T02:27:06.327Z,1009.13
2018-03-14T02:27:06.926Z,1009.10
2018-03-14T02:27:07.527Z,1009.09
2018-03-14T02:27:08.127Z,1009.11
2018-03-14T02:27:08.725Z,1009.08
2018-03-14T02:28:02.212Z,1009.08
2018-03-14T02:28:02.780Z,1009.10
2018-03-14T02:28:03.378Z,1009.04
2018-03-14T02:28:03.979Z,1009.07
2018-03-14T02:28:04.579Z,1009.07
2018-03-14T02:28:05.179Z,1009.08
2018-03-14T02:28:05.784Z,1009.08
2018-03-14T02:28:06.379Z,1009.12
2018-03-14T02:28:59.864Z,1009.11
2018-03-14T02:29:00.430Z,1009.14
2018-03-14T02:29:01.032Z,1009.14
2018-03-14T02:29:01.631Z,1009.12
2018-03-14T02:29:02.229Z,1009.10
2018-03-14T02:29:02.830Z,1009.06
2018-03-14T02:29:03.430Z,1009.09
2018-03-14T02:29:04.030Z,1009.14
2018-03-14T02:29:58.534Z,1009.14
2018-03-14T02:29:59.105Z,1009.15
2018-03-14T02:29:59.706Z,1009.14
2018-03-14T02:30:00.306Z,1009.13
2018-03-14T02:30:00.916Z,1009.08
2018-03-14T02:30:01.505Z,1009.11
2018-03-14T02:30:02.105Z,1009.12
2018-03-14T02:30:02.713Z,1009.11
2018-03-14T02:30:57.211Z,1009.16
2018-03-14T02:30:57.781Z,1009.15
2018-03-14T02:30:58.381Z,1009.16
2018-03-14T02:30:58.985Z,1009.14
2018-03-14T02:30:59.580Z,1009.14
2018-03-14T02:31:00.181Z,1009.12
2018-03-14T02:31:00.780Z,1009.16
2018-03-14T02:31:01.384Z,1009.13
2018-03-14T02:31:55.886Z,1009.12
2018-03-14T02:31:56.458Z,1009.13
2018-03-14T02:31:57.057Z,1009.13
2018-03-14T02:31:57.658Z,1009.10
2018-03-14T02:31:58.256Z,1009.07
2018-03-14T02:31:58.857Z,1009.13
2018-03-14T02:31:59.458Z,1009.12
2018-03-14T02:32:00.056Z,1009.12
2018-03-14T02:32:54.569Z,1009.14
2018-03-14T02:32:55.133Z,1009.13
2018-03-14T02:32:55.733Z,1009.10
2018-03-14T02:32:56.334Z,1009.16
2018-03-14T02:32:56.932Z,1009.12
2018-03-14T02:32:57.532Z,1009.14
2018-03-14T02:32:58.132Z,1009.14
2018-03-14T02:32:58.733Z,1009.09
2018-03-14T02:33:53.241Z,1009.12
2018-03-14T02:33:53.810Z,1009.14
2018-03-14T02:33:54.411Z,1009.16
2018-03-14T02:33:55.009Z,1009.15
2018-03-14T02:33:55.607Z,1009.12
2018-03-14T02:33:56.214Z,1009.13
2018-03-14T02:33:56.808Z,1009.15
2018-03-14T02:33:57.410Z,1009.15
2018-03-14T02:34:50.896Z,1009.11
2018-03-14T02:34:51.461Z,1009.18
2018-03-14T02:34:52.060Z,1009.19
2018-03-14T02:34:52.660Z,1009.14
2018-03-14T02:34:53.261Z,1009.18
2018-03-14T02:34:53.860Z,1009.17
2018-03-14T02:34:54.470Z,1009.17
2018-03-14T02:34:55.059Z,1009.15
2018-03-14T02:35:48.544Z,1009.17
2018-03-14T02:35:49.116Z,1009.18
2018-03-14T02:35:49.712Z,1009.17
2018-03-14T02:35:50.313Z,1009.17
2018-03-14T02:35:50.911Z,1009.14
2018-03-14T02:35:51.511Z,1009.16
2018-03-14T02:35:52.112Z,1009.16
2018-03-14T02:35:52.721Z,1009.19
2018-03-14T02:36:46.197Z,1009.17
2018-03-14T02:36:46.765Z,1009.13
2018-03-14T02:36:47.364Z,1009.16
2018-03-14T02:36:47.964Z,1009.13
2018-03-14T02:36:48.568Z,1009.16
2018-03-14T02:36:49.163Z,1009.12
2018-03-14T02:36:49.764Z,1009.15
2018-03-14T02:36:50.363Z,1009.16
2018-03-14T02:37:44.868Z,1009.20
2018-03-14T02:37:45.439Z,1009.18
2018-03-14T02:37:46.038Z,1009.17
2018-03-14T02:37:46.639Z,1009.19
2018-03-14T02:37:47.239Z,1009.19
2018-03-14T02:37:47.838Z,1009.16
2018-03-14T02:37:48.438Z,1009.16
2018-03-14T02:37:49.038Z,1009.20
2018-03-14T02:38:43.543Z,1009.22
2018-03-14T02:38:44.114Z,1009.22
2018-03-14T02:38:44.715Z,1009.24
2018-03-14T02:38:45.315Z,1009.22
2018-03-14T02:38:45.914Z,1009.21
2018-03-14T02:38:46.518Z,1009.19
2018-03-14T02:38:47.115Z,1009.22
2018-03-14T02:38:47.714Z,1009.26
2018-03-14T02:39:42.220Z,1009.21
2018-03-14T02:39:42.790Z,1009.24
2018-03-14T02:39:43.390Z,1009.23
2018-03-14T02:39:43.990Z,1009.22
2018-03-14T02:39:44.594Z,1009.24
2018-03-14T02:39:45.189Z,1009.25
2018-03-14T02:39:45.790Z,1009.20
2018-03-14T02:39:46.389Z,1009.23
2018-03-14T02:58:09.372Z,1009.37
2018-03-14T02:58:09.948Z,1009.36
2018-03-14T02:58:10.542Z,1009.38
2018-03-14T02:58:11.142Z,1009.34
2018-03-14T02:58:11.741Z,1009.34
2018-03-14T02:58:12.345Z,1009.39
2018-03-14T02:58:12.940Z,1009.38
2018-03-14T02:58:13.540Z,1009.38
2018-03-14T02:59:07.025Z,1009.39
2018-03-14T02:59:07.596Z,1009.35
2018-03-14T02:59:08.196Z,1009.36
2018-03-14T02:59:08.795Z,1009.42
2018-03-14T02:59:09.395Z,1009.39
2018-03-14T02:59:09.995Z,1009.39
2018-03-14T02:59:10.595Z,1009.41
2018-03-14T02:59:11.194Z,1009.39
2018-03-14T03:00:05.711Z,1009.43
2018-03-14T03:00:06.271Z,1009.43
2018-03-14T03:00:06.870Z,1009.38
2018-03-14T03:00:07.472Z,1009.43
2018-03-14T03:00:08.069Z,1009.40
2018-03-14T03:00:08.671Z,1009.41
2018-03-14T03:00:09.270Z,1009.40
2018-03-14T03:00:09.870Z,1009.45
2018-03-14T03:01:03.354Z,1009.42
2018-03-14T03:01:03.924Z,1009.41
2018-03-14T03:01:04.525Z,1009.44
2018-03-14T03:01:05.124Z,1009.37
2018-03-14T03:01:05.724Z,1009.42
2018-03-14T03:01:06.323Z,1009.43
2018-03-14T03:01:06.926Z,1009.41
2018-03-14T03:01:07.527Z,1009.42
2018-03-14T03:02:01.008Z,1009.43
2018-03-14T03:02:01.576Z,1009.44
2018-03-14T03:02:02.178Z,1009.40
2018-03-14T03:02:02.804Z,1009.39
2018-03-14T03:02:03.380Z,1009.41
2018-03-14T03:02:03.976Z,1009.43
2018-03-14T03:02:04.578Z,1009.43
2018-03-14T03:02:05.175Z,1009.42
2018-03-14T03:02:58.659Z,1009.43
2018-03-14T03:02:59.228Z,1009.40
2018-03-14T03:02:59.827Z,1009.45
2018-03-14T03:03:00.426Z,1009.41
2018-03-14T03:03:01.030Z,1009.46
2018-03-14T03:03:01.628Z,1009.45
2018-03-14T03:03:02.228Z,1009.42
2018-03-14T03:03:02.826Z,1009.39
2018-03-14T03:03:57.334Z,1009.40
2018-03-14T03:03:57.903Z,1009.41
2018-03-14T03:03:58.505Z,1009.42
2018-03-14T03:03:59.103Z,1009.44
2018-03-14T03:03:59.702Z,1009.40
2018-03-14T03:04:00.303Z,1009.40
2018-03-14T03:04:00.902Z,1009.41
2018-03-14T03:04:01.550Z,1009.40
2018-03-14T03:04:54.991Z,1009.42
2018-03-14T03:04:55.557Z,1009.46
2018-03-14T03:04:56.157Z,1009.43
2018-03-14T03:04:56.759Z,1009.43
2018-03-14T03:04:57.356Z,1009.42
2018-03-14T03:04:57.956Z,1009.46
2018-03-14T03:04:58.556Z,1009.44
2018-03-14T03:04:59.155Z,1009.42
2018-03-14T03:05:53.661Z,1009.43
2018-03-14T03:05:54.231Z,1009.45
2018-03-14T03:05:54.831Z,1009.40
2018-03-14T03:05:55.430Z,1009.45
2018-03-14T03:05:56.030Z,1009.42
2018-03-14T03:05:56.630Z,1009.46
2018-03-14T03:05:57.230Z,1009.44
2018-03-14T03:05:57.829Z,1009.44
2018-03-14T03:06:52.338Z,1009.43
2018-03-14T03:06:52.907Z,1009.41
2018-03-14T03:06:53.506Z,1009.42
2018-03-14T03:06:54.111Z,1009.45
2018-03-14T03:06:54.706Z,1009.44
2018-03-14T03:06:55.306Z,1009.42
2018-03-14T03:06:55.907Z,1009.46
2018-03-14T03:06:56.505Z,1009.44
2018-03-14T03:07:49.990Z,1009.45
2018-03-14T03:07:50.560Z,1009.44
2018-03-14T03:07:51.159Z,1009.44
2018-03-14T03:07:51.760Z,1009.44
2018-03-14T03:07:52.358Z,1009.49
2018-03-14T03:07:53.012Z,1009.43
2018-03-14T03:07:53.562Z,1009.46
2018-03-14T03:07:54.158Z,1009.44
2018-03-14T03:08:47.643Z,1009.44
2018-03-14T03:08:48.211Z,1009.46
2018-03-14T03:08:48.810Z,1009.45
2018-03-14T03:08:49.412Z,1009.45
2018-03-14T03:08:50.011Z,1009.43
2018-03-14T03:08:50.610Z,1009.48
2018-03-14T03:08:51.212Z,1009.47
2018-03-14T03:08:51.809Z,1009.41
2018-03-14T03:09:46.316Z,1009.48
2018-03-14T03:09:46.888Z,1009.48
2018-03-14T03:09:47.487Z,1009.44
2018-03-14T03:09:48.094Z,1009.46
2018-03-14T03:09:48.685Z,1009.46
2018-03-14T03:09:49.288Z,1009.52
2018-03-14T03:09:49.885Z,1009.50
2018-03-14T03:09:50.490Z,1009.47
2018-03-14T03:10:44.993Z,1009.51
2018-03-14T03:10:45.565Z,1009.49
2018-03-14T03:10:46.160Z,1009.49
2018-03-14T03:10:46.767Z,1009.50
2018-03-14T03:10:47.360Z,1009.47
2018-03-14T03:10:47.964Z,1009.50
2018-03-14T03:10:48.558Z,1009.51
2018-03-14T03:10:49.159Z,1009.47
2018-03-14T03:11:42.646Z,1009.52
2018-03-14T03:11:43.215Z,1009.53
2018-03-14T03:11:43.871Z,1009.48
2018-03-14T03:11:44.423Z,1009.49
2018-03-14T03:11:45.015Z,1009.52
2018-03-14T03:11:45.614Z,1009.49
2018-03-14T03:11:46.225Z,1009.49
2018-03-14T03:11:46.813Z,1009.49
2018-03-14T03:12:41.323Z,1009.53
2018-03-14T03:12:41.890Z,1009.51
2018-03-14T03:12:42.493Z,1009.48
2018-03-14T03:12:43.095Z,1009.52
2018-03-14T03:12:43.736Z,1009.47
2018-03-14T03:12:44.294Z,1009.51
2018-03-14T03:12:44.924Z,1009.49
2018-03-14T03:12:45.516Z,1009.48
2018-03-14T03:13:39.995Z,1009.48
2018-03-14T03:13:40.564Z,1009.50
2018-03-14T03:13:41.165Z,1009.48
2018-03-14T03:13:41.768Z,1009.46
2018-03-14T03:13:42.365Z,1009.49
2018-03-14T03:13:42.963Z,1009.48
2018-03-14T03:13:43.563Z,1009.47
2018-03-14T03:13:44.165Z,1009.47
2018-03-14T03:14:37.649Z,1009.51
2018-03-14T03:14:38.218Z,1009.50
2018-03-14T03:14:38.818Z,1009.52
2018-03-14T03:14:39.423Z,1009.52
2018-03-14T03:14:40.015Z,1009.54
2018-03-14T03:14:40.615Z,1009.52
2018-03-14T03:14:41.215Z,1009.51
2018-03-14T03:14:41.815Z,1009.52
2018-03-14T03:15:35.302Z,1009.50
2018-03-14T03:15:35.871Z,1009.51
2018-03-14T03:15:36.469Z,1009.53
2018-03-14T03:15:37.068Z,1009.50
2018-03-14T03:15:37.669Z,1009.48
2018-03-14T03:15:38.277Z,1009.48
2018-03-14T03:15:38.871Z,1009.45
2018-03-14T03:15:39.468Z,1009.47
2018-03-14T03:16:32.954Z,1009.48
2018-03-14T03:16:33.523Z,1009.53
2018-03-14T03:16:34.120Z,1009.50
2018-03-14T03:16:34.721Z,1009.53
2018-03-14T03:16:35.322Z,1009.47
2018-03-14T03:16:35.920Z,1009.51
2018-03-14T03:16:36.521Z,1009.53
2018-03-14T03:16:37.120Z,1009.52
2018-03-14T03:17:30.606Z,1009.50
2018-03-14T03:17:31.173Z,1009.51
2018-03-14T03:17:31.775Z,1009.51
2018-03-14T03:17:32.374Z,1009.48
2018-03-14T03:17:32.973Z,1009.49
2018-03-14T03:17:33.573Z,1009.54
2018-03-14T03:17:34.173Z,1009.50
2018-03-14T03:17:34.772Z,1009.52
2018-03-14T03:18:28.256Z,1009.52
2018-03-14T03:18:28.828Z,1009.53
2018-03-14T03:18:29.426Z,1009.55
2018-03-14T03:18:30.025Z,1009.52
2018-03-14T03:18:30.630Z,1009.56
2018-03-14T03:18:31.225Z,1009.55
2018-03-14T03:18:31.825Z,1009.53
2018-03-14T03:18:32.425Z,1009.53
2018-03-14T03:19:26.928Z,1009.53
2018-03-14T03:19:27.500Z,1009.55
2018-03-14T03:19:28.099Z,1009.56
2018-03-14T03:19:28.700Z,1009.53
2018-03-14T03:19:29.299Z,1009.55
2018-03-14T03:19:29.900Z,1009.56
2018-03-14T03:19:30.498Z,1009.56
2018-03-14T03:19:31.099Z,1009.56
2018-03-14T03:20:25.604Z,1009.59
2018-03-14T03:20:26.175Z,1009.58
2018-03-14T03:20:26.774Z,1009.58
2018-03-14T03:20:27.376Z,1009.55
2018-03-14T03:20:27.974Z,1009.56
2018-03-14T03:20:28.574Z,1009.56
2018-03-14T03:20:29.174Z,1009.58
2018-03-14T03:20:29.775Z,1009.60
2018-03-14T03:21:24.281Z,1009.58
2018-03-14T03:21:24.851Z,1009.60
2018-03-14T03:21:25.451Z,1009.55
2018-03-14T03:21:26.052Z,1009.53
2018-03-14T03:21:26.652Z,1009.56
2018-03-14T03:21:27.250Z,1009.57
2018-03-14T03:21:27.851Z,1009.59
2018-03-14T03:21:28.451Z,1009.61
2018-03-14T03:22:22.956Z,1009.56
2018-03-14T03:22:23.534Z,1009.59
2018-03-14T03:22:24.126Z,1009.55
2018-03-14T03:22:24.727Z,1009.61
2018-03-14T03:22:25.326Z,1009.59
2018-03-14T03:22:25.926Z,1009.60
2018-03-14T03:22:26.526Z,1009.56
2018-03-14T03:22:27.126Z,1009.58
2018-03-14T03:23:21.632Z,1009.61
2018-03-14T03:23:22.202Z,1009.61
2018-03-14T03:23:22.801Z,1009.61
2018-03-14T03:23:23.403Z,1009.61
2018-03-14T03:23:24.001Z,1009.61
2018-03-14T03:23:24.601Z,1009.61
2018-03-14T03:23:25.201Z,1009.60
2018-03-14T03:23:25.801Z,1009.61
2018-03-14T03:24:20.308Z,1009.61
2018-03-14T03:24:20.879Z,1009.61
2018-03-14T03:24:21.478Z,1009.55
2018-03-14T03:24:22.079Z,1009.55
2018-03-14T03:24:22.682Z,1009.59
2018-03-14T03:24:23.278Z,1009.59
2018-03-14T03:24:23.879Z,1009.57
2018-03-14T03:24:24.479Z,1009.58
2018-03-14T03:25:17.963Z,1009.63
2018-03-14T03:25:18.530Z,1009.61
2018-03-14T03:25:19.131Z,1009.60
2018-03-14T03:25:19.731Z,1009.60
2018-03-14T03:25:20.330Z,1009.62
2018-03-14T03:25:20.930Z,1009.63
2018-03-14T03:25:21.530Z,1009.64
2018-03-14T03:25:22.129Z,1009.60
2018-03-14T03:26:15.614Z,1009.62
2018-03-14T03:26:16.183Z,1009.64
2018-03-14T03:26:16.783Z,1009.60
2018-03-14T03:26:17.381Z,1009.62
2018-03-14T03:26:17.982Z,1009.63
2018-03-14T03:26:18.582Z,1009.62
2018-03-14T03:26:19.182Z,1009.58
2018-03-14T03:26:19.782Z,1009.61
2018-03-14T03:27:14.287Z,1009.63
2018-03-14T03:27:14.860Z,1009.65
2018-03-14T03:27:15.457Z,1009.62
2018-03-14T03:27:16.058Z,1009.59
2018-03-14T03:27:16.658Z,1009.59
2018-03-14T03:27:17.256Z,1009.61